sensor_id;sensor_type;location;lat;lon;timestamp;P1;durP1;ratioP1;P2;durP2;ratioP2
11548;SDS011;61444;59.472;18.306;2023-05-07T00:00:59;2.50;;;2.20;;
11548;SDS011;61444;59.472;18.306;2023-05-07T00:03:09;2.47;;;1.77;;
11548;SDS011;61444;59.472;18.306;2023-05-07T00:05:20;2.03;;;1.70;;
11548;SDS011;61444;59.472;18.306;2023-05-07T00:07:29;3.00;;;2.00;;
11548;SDS011;61444;59.472;18.306;2023-05-07T00:09:39;2.57;;;1.73;;
11548;SDS011;61444;59.472;18.306;2023-05-07T00:11:48;3.63;;;2.00;;
11548;SDS011;61444;59.472;18.306;2023-05-07T00:13:57;3.07;;;2.10;;
11548;SDS011;61444;59.472;18.306;2023-05-07T00:16:06;5.03;;;2.00;;
11548;SDS011;61444;59.472;18.306;2023-05-07T00:18:16;2.57;;;2.20;;
11548;SDS011;61444;59.472;18.306;2023-05-07T00:20:28;3.27;;;2.07;;
11548;SDS011;61444;59.472;18.306;2023-05-07T00:22:40;2.60;;;1.90;;
11548;SDS011;61444;59.472;18.306;2023-05-07T00:24:50;5.90;;;2.10;;
11548;SDS011;61444;59.472;18.306;2023-05-07T00:26:58;2.37;;;1.60;;
11548;SDS011;61444;59.472;18.306;2023-05-07T00:29:07;3.70;;;2.30;;
11548;SDS011;61444;59.472;18.306;2023-05-07T00:31:16;5.03;;;2.30;;
11548;SDS011;61444;59.472;18.306;2023-05-07T00:33:27;3.00;;;2.03;;
11548;SDS011;61444;59.472;18.306;2023-05-07T00:35:38;3.40;;;1.90;;
11548;SDS011;61444;59.472;18.306;2023-05-07T00:37:47;3.73;;;1.97;;
11548;SDS011;61444;59.472;18.306;2023-05-07T00:39:56;2.57;;;1.90;;
11548;SDS011;61444;59.472;18.306;2023-05-07T00:42:05;2.53;;;1.70;;
11548;SDS011;61444;59.472;18.306;2023-05-07T00:44:14;3.77;;;2.07;;
11548;SDS011;61444;59.472;18.306;2023-05-07T00:46:24;6.13;;;1.90;;
11548;SDS011;61444;59.472;18.306;2023-05-07T00:48:35;3.00;;;2.20;;
11548;SDS011;61444;59.472;18.306;2023-05-07T00:50:44;3.97;;;2.00;;
11548;SDS011;61444;59.472;18.306;2023-05-07T00:52:54;4.07;;;1.83;;
11548;SDS011;61444;59.472;18.306;2023-05-07T00:55:04;4.07;;;2.07;;
11548;SDS011;61444;59.472;18.306;2023-05-07T00:57:13;5.13;;;2.23;;
11548;SDS011;61444;59.472;18.306;2023-05-07T00:59:23;7.60;;;2.27;;
11548;SDS011;61444;59.472;18.306;2023-05-07T01:01:32;2.70;;;1.60;;
11548;SDS011;61444;59.472;18.306;2023-05-07T01:03:44;3.40;;;2.20;;
11548;SDS011;61444;59.472;18.306;2023-05-07T01:05:53;3.53;;;2.00;;
11548;SDS011;61444;59.472;18.306;2023-05-07T01:08:03;2.67;;;1.80;;
11548;SDS011;61444;59.472;18.306;2023-05-07T01:10:13;3.30;;;2.00;;
11548;SDS011;61444;59.472;18.306;2023-05-07T01:12:22;2.90;;;1.80;;
11548;SDS011;61444;59.472;18.306;2023-05-07T01:14:32;3.43;;;1.87;;
11548;SDS011;61444;59.472;18.306;2023-05-07T01:16:41;2.30;;;1.70;;
11548;SDS011;61444;59.472;18.306;2023-05-07T01:18:52;3.63;;;2.43;;
11548;SDS011;61444;59.472;18.306;2023-05-07T01:21:01;3.53;;;2.00;;
11548;SDS011;61444;59.472;18.306;2023-05-07T01:23:14;6.93;;;2.23;;
11548;SDS011;61444;59.472;18.306;2023-05-07T01:25:24;5.27;;;1.90;;
11548;SDS011;61444;59.472;18.306;2023-05-07T01:27:33;4.20;;;2.20;;
11548;SDS011;61444;59.472;18.306;2023-05-07T01:29:43;8.53;;;2.27;;
11548;SDS011;61444;59.472;18.306;2023-05-07T01:31:51;2.40;;;1.67;;
11548;SDS011;61444;59.472;18.306;2023-05-07T01:34:01;2.70;;;1.87;;
11548;SDS011;61444;59.472;18.306;2023-05-07T01:36:11;3.27;;;2.03;;
11548;SDS011;61444;59.472;18.306;2023-05-07T01:38:22;3.93;;;1.93;;
11548;SDS011;61444;59.472;18.306;2023-05-07T01:40:31;3.23;;;2.13;;
11548;SDS011;61444;59.472;18.306;2023-05-07T01:42:40;2.83;;;1.97;;
11548;SDS011;61444;59.472;18.306;2023-05-07T01:44:50;7.67;;;1.97;;
11548;SDS011;61444;59.472;18.306;2023-05-07T01:46:58;3.57;;;1.67;;
11548;SDS011;61444;59.472;18.306;2023-05-07T01:49:08;3.23;;;1.90;;
11548;SDS011;61444;59.472;18.306;2023-05-07T01:51:17;4.27;;;2.20;;
11548;SDS011;61444;59.472;18.306;2023-05-07T01:53:28;5.63;;;1.90;;
11548;SDS011;61444;59.472;18.306;2023-05-07T01:55:37;11.30;;;2.30;;
11548;SDS011;61444;59.472;18.306;2023-05-07T01:57:46;5.10;;;2.20;;
11548;SDS011;61444;59.472;18.306;2023-05-07T01:59:56;2.17;;;1.80;;
11548;SDS011;61444;59.472;18.306;2023-05-07T02:02:05;4.07;;;1.70;;
11548;SDS011;61444;59.472;18.306;2023-05-07T02:04:13;3.20;;;1.87;;
11548;SDS011;61444;59.472;18.306;2023-05-07T02:06:22;2.83;;;1.93;;
11548;SDS011;61444;59.472;18.306;2023-05-07T02:08:32;3.50;;;1.90;;
11548;SDS011;61444;59.472;18.306;2023-05-07T02:10:42;4.60;;;2.00;;
11548;SDS011;61444;59.472;18.306;2023-05-07T02:12:50;5.33;;;2.07;;
11548;SDS011;61444;59.472;18.306;2023-05-07T02:14:59;4.13;;;2.17;;
11548;SDS011;61444;59.472;18.306;2023-05-07T02:17:08;2.60;;;1.87;;
11548;SDS011;61444;59.472;18.306;2023-05-07T02:19:17;4.20;;;2.07;;
11548;SDS011;61444;59.472;18.306;2023-05-07T02:21:27;2.80;;;1.90;;
11548;SDS011;61444;59.472;18.306;2023-05-07T02:23:38;2.03;;;1.73;;
11548;SDS011;61444;59.472;18.306;2023-05-07T02:25:46;3.90;;;1.80;;
11548;SDS011;61444;59.472;18.306;2023-05-07T02:27:55;3.30;;;2.20;;
11548;SDS011;61444;59.472;18.306;2023-05-07T02:30:05;4.77;;;2.30;;
11548;SDS011;61444;59.472;18.306;2023-05-07T02:32:14;2.70;;;1.80;;
11548;SDS011;61444;59.472;18.306;2023-05-07T02:34:23;4.50;;;2.07;;
11548;SDS011;61444;59.472;18.306;2023-05-07T02:36:32;2.87;;;2.10;;
11548;SDS011;61444;59.472;18.306;2023-05-07T02:38:43;3.40;;;2.00;;
11548;SDS011;61444;59.472;18.306;2023-05-07T02:40:52;2.53;;;1.77;;
11548;SDS011;61444;59.472;18.306;2023-05-07T02:43:01;2.83;;;2.03;;
11548;SDS011;61444;59.472;18.306;2023-05-07T02:45:10;3.97;;;2.20;;
11548;SDS011;61444;59.472;18.306;2023-05-07T02:47:18;3.30;;;1.90;;
11548;SDS011;61444;59.472;18.306;2023-05-07T02:49:27;3.43;;;1.80;;
11548;SDS011;61444;59.472;18.306;2023-05-07T02:51:36;2.33;;;1.70;;
11548;SDS011;61444;59.472;18.306;2023-05-07T02:53:46;2.67;;;1.90;;
11548;SDS011;61444;59.472;18.306;2023-05-07T02:55:55;2.83;;;2.00;;
11548;SDS011;61444;59.472;18.306;2023-05-07T02:58:04;4.40;;;2.37;;
11548;SDS011;61444;59.472;18.306;2023-05-07T03:00:14;2.67;;;1.90;;
11548;SDS011;61444;59.472;18.306;2023-05-07T03:02:24;3.07;;;2.10;;
11548;SDS011;61444;59.472;18.306;2023-05-07T03:04:33;4.93;;;2.27;;
11548;SDS011;61444;59.472;18.306;2023-05-07T03:06:42;5.60;;;2.40;;
11548;SDS011;61444;59.472;18.306;2023-05-07T03:08:52;3.77;;;2.30;;
11548;SDS011;61444;59.472;18.306;2023-05-07T03:11:01;3.97;;;2.23;;
11548;SDS011;61444;59.472;18.306;2023-05-07T03:13:10;4.47;;;2.10;;
11548;SDS011;61444;59.472;18.306;2023-05-07T03:15:19;3.03;;;2.07;;
11548;SDS011;61444;59.472;18.306;2023-05-07T03:17:28;5.10;;;2.10;;
11548;SDS011;61444;59.472;18.306;2023-05-07T03:19:37;3.70;;;2.17;;
11548;SDS011;61444;59.472;18.306;2023-05-07T03:21:46;3.90;;;2.13;;
11548;SDS011;61444;59.472;18.306;2023-05-07T03:23:56;3.93;;;2.27;;
11548;SDS011;61444;59.472;18.306;2023-05-07T03:26:05;3.37;;;2.60;;
11548;SDS011;61444;59.472;18.306;2023-05-07T03:28:13;2.63;;;1.93;;
11548;SDS011;61444;59.472;18.306;2023-05-07T03:30:22;3.57;;;2.13;;
11548;SDS011;61444;59.472;18.306;2023-05-07T03:32:31;4.43;;;2.73;;
11548;SDS011;61444;59.472;18.306;2023-05-07T03:34:40;2.77;;;1.93;;
11548;SDS011;61444;59.472;18.306;2023-05-07T03:36:49;5.23;;;2.37;;
11548;SDS011;61444;59.472;18.306;2023-05-07T03:38:59;3.83;;;1.90;;
11548;SDS011;61444;59.472;18.306;2023-05-07T03:41:08;3.23;;;2.00;;
11548;SDS011;61444;59.472;18.306;2023-05-07T03:43:17;4.37;;;1.83;;
11548;SDS011;61444;59.472;18.306;2023-05-07T03:45:26;8.03;;;2.50;;
11548;SDS011;61444;59.472;18.306;2023-05-07T03:47:35;4.70;;;2.20;;
11548;SDS011;61444;59.472;18.306;2023-05-07T03:49:43;2.70;;;1.80;;
11548;SDS011;61444;59.472;18.306;2023-05-07T03:51:52;4.30;;;2.30;;
11548;SDS011;61444;59.472;18.306;2023-05-07T03:54:03;2.97;;;1.90;;
11548;SDS011;61444;59.472;18.306;2023-05-07T03:56:12;3.03;;;2.10;;
11548;SDS011;61444;59.472;18.306;2023-05-07T03:58:23;4.03;;;2.27;;
11548;SDS011;61444;59.472;18.306;2023-05-07T04:00:32;2.73;;;2.40;;
11548;SDS011;61444;59.472;18.306;2023-05-07T04:02:44;4.67;;;2.20;;
11548;SDS011;61444;59.472;18.306;2023-05-07T04:04:53;6.53;;;2.23;;
11548;SDS011;61444;59.472;18.306;2023-05-07T04:07:02;5.00;;;2.13;;
11548;SDS011;61444;59.472;18.306;2023-05-07T04:09:13;3.40;;;2.33;;
11548;SDS011;61444;59.472;18.306;2023-05-07T04:11:22;4.37;;;2.07;;
11548;SDS011;61444;59.472;18.306;2023-05-07T04:13:31;3.13;;;1.97;;
11548;SDS011;61444;59.472;18.306;2023-05-07T04:15:40;7.70;;;2.10;;
11548;SDS011;61444;59.472;18.306;2023-05-07T04:17:49;2.93;;;1.90;;
11548;SDS011;61444;59.472;18.306;2023-05-07T04:19:58;3.50;;;2.17;;
11548;SDS011;61444;59.472;18.306;2023-05-07T04:22:09;4.23;;;2.30;;
11548;SDS011;61444;59.472;18.306;2023-05-07T04:24:19;3.57;;;2.33;;
11548;SDS011;61444;59.472;18.306;2023-05-07T04:26:28;4.17;;;2.10;;
11548;SDS011;61444;59.472;18.306;2023-05-07T04:28:38;5.17;;;2.30;;
11548;SDS011;61444;59.472;18.306;2023-05-07T04:30:47;2.60;;;1.80;;
11548;SDS011;61444;59.472;18.306;2023-05-07T04:32:56;2.50;;;2.00;;
11548;SDS011;61444;59.472;18.306;2023-05-07T04:35:05;4.77;;;2.00;;
11548;SDS011;61444;59.472;18.306;2023-05-07T04:37:15;2.87;;;2.40;;
11548;SDS011;61444;59.472;18.306;2023-05-07T04:39:25;4.40;;;2.07;;
11548;SDS011;61444;59.472;18.306;2023-05-07T04:41:35;2.77;;;2.10;;
11548;SDS011;61444;59.472;18.306;2023-05-07T04:43:44;4.20;;;2.40;;
11548;SDS011;61444;59.472;18.306;2023-05-07T04:45:52;4.57;;;2.20;;
11548;SDS011;61444;59.472;18.306;2023-05-07T04:48:02;4.80;;;2.17;;
11548;SDS011;61444;59.472;18.306;2023-05-07T04:50:11;4.83;;;2.37;;
11548;SDS011;61444;59.472;18.306;2023-05-07T04:52:19;6.03;;;2.50;;
11548;SDS011;61444;59.472;18.306;2023-05-07T04:54:32;8.13;;;2.17;;
11548;SDS011;61444;59.472;18.306;2023-05-07T04:56:42;3.77;;;2.40;;
11548;SDS011;61444;59.472;18.306;2023-05-07T04:58:51;5.37;;;2.70;;
11548;SDS011;61444;59.472;18.306;2023-05-07T05:01:00;4.50;;;2.63;;
11548;SDS011;61444;59.472;18.306;2023-05-07T05:03:09;5.27;;;2.87;;
11548;SDS011;61444;59.472;18.306;2023-05-07T05:05:18;4.77;;;2.47;;
11548;SDS011;61444;59.472;18.306;2023-05-07T05:07:27;3.33;;;2.07;;
11548;SDS011;61444;59.472;18.306;2023-05-07T05:09:38;3.87;;;2.10;;
11548;SDS011;61444;59.472;18.306;2023-05-07T05:11:47;3.37;;;2.43;;
11548;SDS011;61444;59.472;18.306;2023-05-07T05:13:56;4.37;;;2.70;;
11548;SDS011;61444;59.472;18.306;2023-05-07T05:16:05;3.53;;;1.90;;
11548;SDS011;61444;59.472;18.306;2023-05-07T05:18:15;2.83;;;2.03;;
11548;SDS011;61444;59.472;18.306;2023-05-07T05:20:23;2.43;;;1.90;;
11548;SDS011;61444;59.472;18.306;2023-05-07T05:22:32;2.67;;;2.10;;
11548;SDS011;61444;59.472;18.306;2023-05-07T05:24:43;3.80;;;2.00;;
11548;SDS011;61444;59.472;18.306;2023-05-07T05:26:52;2.57;;;2.00;;
11548;SDS011;61444;59.472;18.306;2023-05-07T05:29:02;2.10;;;1.60;;
11548;SDS011;61444;59.472;18.306;2023-05-07T05:31:11;3.07;;;1.63;;
11548;SDS011;61444;59.472;18.306;2023-05-07T05:33:20;2.70;;;1.83;;
11548;SDS011;61444;59.472;18.306;2023-05-07T05:35:29;3.67;;;1.70;;
11548;SDS011;61444;59.472;18.306;2023-05-07T05:37:38;2.20;;;1.60;;
11548;SDS011;61444;59.472;18.306;2023-05-07T05:39:49;2.43;;;2.03;;
11548;SDS011;61444;59.472;18.306;2023-05-07T05:41:57;2.80;;;1.80;;
11548;SDS011;61444;59.472;18.306;2023-05-07T05:44:06;2.43;;;1.50;;
11548;SDS011;61444;59.472;18.306;2023-05-07T05:46:15;3.23;;;1.90;;
11548;SDS011;61444;59.472;18.306;2023-05-07T05:48:23;1.57;;;1.33;;
11548;SDS011;61444;59.472;18.306;2023-05-07T05:50:32;2.80;;;1.90;;
11548;SDS011;61444;59.472;18.306;2023-05-07T05:52:42;2.80;;;1.60;;
11548;SDS011;61444;59.472;18.306;2023-05-07T05:54:52;3.67;;;1.60;;
11548;SDS011;61444;59.472;18.306;2023-05-07T05:57:01;2.73;;;1.70;;
11548;SDS011;61444;59.472;18.306;2023-05-07T05:59:10;2.60;;;2.33;;
11548;SDS011;61444;59.472;18.306;2023-05-07T06:01:20;1.47;;;1.00;;
11548;SDS011;61444;59.472;18.306;2023-05-07T06:03:28;3.17;;;1.77;;
11548;SDS011;61444;59.472;18.306;2023-05-07T06:05:39;4.33;;;1.33;;
11548;SDS011;61444;59.472;18.306;2023-05-07T06:07:47;2.23;;;1.50;;
11548;SDS011;61444;59.472;18.306;2023-05-07T06:09:58;2.27;;;1.50;;
11548;SDS011;61444;59.472;18.306;2023-05-07T06:12:07;3.60;;;1.60;;
11548;SDS011;61444;59.472;18.306;2023-05-07T06:14:16;1.63;;;1.43;;
11548;SDS011;61444;59.472;18.306;2023-05-07T06:16:24;1.60;;;1.37;;
11548;SDS011;61444;59.472;18.306;2023-05-07T06:18:34;2.20;;;1.60;;
11548;SDS011;61444;59.472;18.306;2023-05-07T06:20:43;1.63;;;1.30;;
11548;SDS011;61444;59.472;18.306;2023-05-07T06:22:53;2.23;;;1.47;;
11548;SDS011;61444;59.472;18.306;2023-05-07T06:25:03;2.03;;;1.50;;
11548;SDS011;61444;59.472;18.306;2023-05-07T06:27:12;2.97;;;1.40;;
11548;SDS011;61444;59.472;18.306;2023-05-07T06:29:21;2.20;;;1.30;;
11548;SDS011;61444;59.472;18.306;2023-05-07T06:31:30;2.90;;;1.40;;
11548;SDS011;61444;59.472;18.306;2023-05-07T06:33:39;3.77;;;2.00;;
11548;SDS011;61444;59.472;18.306;2023-05-07T06:35:48;2.93;;;1.50;;
11548;SDS011;61444;59.472;18.306;2023-05-07T06:37:57;1.60;;;1.30;;
11548;SDS011;61444;59.472;18.306;2023-05-07T06:40:08;3.53;;;1.30;;
11548;SDS011;61444;59.472;18.306;2023-05-07T06:42:18;1.47;;;1.20;;
11548;SDS011;61444;59.472;18.306;2023-05-07T06:44:27;2.23;;;1.30;;
11548;SDS011;61444;59.472;18.306;2023-05-07T06:46:36;1.77;;;1.67;;
11548;SDS011;61444;59.472;18.306;2023-05-07T06:48:45;2.07;;;1.60;;
11548;SDS011;61444;59.472;18.306;2023-05-07T06:50:53;1.57;;;1.40;;
11548;SDS011;61444;59.472;18.306;2023-05-07T06:53:04;1.37;;;1.27;;
11548;SDS011;61444;59.472;18.306;2023-05-07T06:55:14;2.07;;;1.57;;
11548;SDS011;61444;59.472;18.306;2023-05-07T06:57:23;1.97;;;1.47;;
11548;SDS011;61444;59.472;18.306;2023-05-07T06:59:32;1.57;;;1.30;;
11548;SDS011;61444;59.472;18.306;2023-05-07T07:01:41;1.40;;;1.30;;
11548;SDS011;61444;59.472;18.306;2023-05-07T07:03:50;2.20;;;1.43;;
11548;SDS011;61444;59.472;18.306;2023-05-07T07:05:58;2.00;;;1.30;;
11548;SDS011;61444;59.472;18.306;2023-05-07T07:08:09;2.17;;;1.30;;
11548;SDS011;61444;59.472;18.306;2023-05-07T07:10:19;1.97;;;1.43;;
11548;SDS011;61444;59.472;18.306;2023-05-07T07:12:28;2.00;;;1.40;;
11548;SDS011;61444;59.472;18.306;2023-05-07T07:14:37;1.50;;;1.40;;
11548;SDS011;61444;59.472;18.306;2023-05-07T07:16:46;2.67;;;1.60;;
11548;SDS011;61444;59.472;18.306;2023-05-07T07:18:55;2.23;;;1.33;;
11548;SDS011;61444;59.472;18.306;2023-05-07T07:21:04;3.80;;;1.13;;
11548;SDS011;61444;59.472;18.306;2023-05-07T07:23:13;4.70;;;1.30;;
11548;SDS011;61444;59.472;18.306;2023-05-07T07:25:23;1.40;;;1.27;;
11548;SDS011;61444;59.472;18.306;2023-05-07T07:27:32;2.17;;;1.37;;
11548;SDS011;61444;59.472;18.306;2023-05-07T07:29:41;1.60;;;1.30;;
11548;SDS011;61444;59.472;18.306;2023-05-07T07:31:50;3.37;;;1.30;;
11548;SDS011;61444;59.472;18.306;2023-05-07T07:33:59;2.43;;;1.30;;
11548;SDS011;61444;59.472;18.306;2023-05-07T07:36:07;2.43;;;1.30;;
11548;SDS011;61444;59.472;18.306;2023-05-07T07:38:16;2.60;;;1.40;;
11548;SDS011;61444;59.472;18.306;2023-05-07T07:40:27;4.00;;;1.67;;
11548;SDS011;61444;59.472;18.306;2023-05-07T07:42:36;1.40;;;1.30;;
11548;SDS011;61444;59.472;18.306;2023-05-07T07:44:45;1.70;;;1.40;;
11548;SDS011;61444;59.472;18.306;2023-05-07T07:46:54;1.97;;;1.53;;
11548;SDS011;61444;59.472;18.306;2023-05-07T07:49:03;2.50;;;1.20;;
11548;SDS011;61444;59.472;18.306;2023-05-07T07:51:12;2.47;;;1.37;;
11548;SDS011;61444;59.472;18.306;2023-05-07T07:53:21;1.50;;;1.40;;
11548;SDS011;61444;59.472;18.306;2023-05-07T07:55:31;2.70;;;1.60;;
11548;SDS011;61444;59.472;18.306;2023-05-07T07:57:40;2.60;;;1.20;;
11548;SDS011;61444;59.472;18.306;2023-05-07T07:59:49;1.50;;;1.40;;
11548;SDS011;61444;59.472;18.306;2023-05-07T08:01:58;1.80;;;1.30;;
11548;SDS011;61444;59.472;18.306;2023-05-07T08:04:07;1.77;;;1.20;;
11548;SDS011;61444;59.472;18.306;2023-05-07T08:06:16;2.73;;;1.30;;
11548;SDS011;61444;59.472;18.306;2023-05-07T08:08:25;2.70;;;1.47;;
11548;SDS011;61444;59.472;18.306;2023-05-07T08:10:35;1.53;;;1.30;;
11548;SDS011;61444;59.472;18.306;2023-05-07T08:12:45;2.10;;;1.43;;
11548;SDS011;61444;59.472;18.306;2023-05-07T08:14:54;2.37;;;1.60;;
11548;SDS011;61444;59.472;18.306;2023-05-07T08:17:03;2.17;;;1.40;;
11548;SDS011;61444;59.472;18.306;2023-05-07T08:19:12;1.30;;;1.20;;
11548;SDS011;61444;59.472;18.306;2023-05-07T08:21:21;1.50;;;1.40;;
11548;SDS011;61444;59.472;18.306;2023-05-07T08:23:30;1.60;;;1.30;;
11548;SDS011;61444;59.472;18.306;2023-05-07T08:25:42;2.27;;;1.50;;
11548;SDS011;61444;59.472;18.306;2023-05-07T08:27:51;1.77;;;1.30;;
11548;SDS011;61444;59.472;18.306;2023-05-07T08:30:00;1.70;;;1.60;;
11548;SDS011;61444;59.472;18.306;2023-05-07T08:32:09;1.87;;;1.47;;
11548;SDS011;61444;59.472;18.306;2023-05-07T08:34:18;1.80;;;1.33;;
11548;SDS011;61444;59.472;18.306;2023-05-07T08:36:27;1.50;;;1.30;;
11548;SDS011;61444;59.472;18.306;2023-05-07T08:38:36;2.77;;;1.53;;
11548;SDS011;61444;59.472;18.306;2023-05-07T08:40:48;2.70;;;1.33;;
11548;SDS011;61444;59.472;18.306;2023-05-07T08:42:57;1.73;;;1.20;;
11548;SDS011;61444;59.472;18.306;2023-05-07T08:45:08;2.37;;;1.50;;
11548;SDS011;61444;59.472;18.306;2023-05-07T08:47:18;1.97;;;1.40;;
11548;SDS011;61444;59.472;18.306;2023-05-07T08:49:28;1.87;;;1.40;;
11548;SDS011;61444;59.472;18.306;2023-05-07T08:51:37;1.63;;;1.47;;
11548;SDS011;61444;59.472;18.306;2023-05-07T08:53:46;2.70;;;1.80;;
11548;SDS011;61444;59.472;18.306;2023-05-07T08:55:58;2.33;;;1.50;;
11548;SDS011;61444;59.472;18.306;2023-05-07T08:58:07;2.50;;;1.50;;
11548;SDS011;61444;59.472;18.306;2023-05-07T09:00:16;1.47;;;1.37;;
11548;SDS011;61444;59.472;18.306;2023-05-07T09:02:25;2.57;;;1.70;;
11548;SDS011;61444;59.472;18.306;2023-05-07T09:04:34;1.60;;;1.50;;
11548;SDS011;61444;59.472;18.306;2023-05-07T09:06:43;2.00;;;1.80;;
11548;SDS011;61444;59.472;18.306;2023-05-07T09:08:54;3.30;;;1.57;;
11548;SDS011;61444;59.472;18.306;2023-05-07T09:11:06;1.67;;;1.50;;
11548;SDS011;61444;59.472;18.306;2023-05-07T09:13:16;1.60;;;1.50;;
11548;SDS011;61444;59.472;18.306;2023-05-07T09:15:25;2.20;;;1.43;;
11548;SDS011;61444;59.472;18.306;2023-05-07T09:17:34;2.23;;;1.53;;
11548;SDS011;61444;59.472;18.306;2023-05-07T09:19:43;1.57;;;1.47;;
11548;SDS011;61444;59.472;18.306;2023-05-07T09:21:57;3.00;;;1.30;;
11548;SDS011;61444;59.472;18.306;2023-05-07T09:24:07;1.83;;;1.30;;
11548;SDS011;61444;59.472;18.306;2023-05-07T09:26:19;1.97;;;1.40;;
11548;SDS011;61444;59.472;18.306;2023-05-07T09:28:29;1.90;;;1.40;;
11548;SDS011;61444;59.472;18.306;2023-05-07T09:30:39;1.50;;;1.40;;
11548;SDS011;61444;59.472;18.306;2023-05-07T09:32:48;2.00;;;1.50;;
11548;SDS011;61444;59.472;18.306;2023-05-07T09:34:58;2.87;;;1.50;;
11548;SDS011;61444;59.472;18.306;2023-05-07T09:37:07;1.83;;;1.57;;
11548;SDS011;61444;59.472;18.306;2023-05-07T09:39:16;4.03;;;1.50;;
11548;SDS011;61444;59.472;18.306;2023-05-07T09:41:26;1.20;;;1.10;;
11548;SDS011;61444;59.472;18.306;2023-05-07T09:43:36;2.23;;;1.73;;
11548;SDS011;61444;59.472;18.306;2023-05-07T09:45:46;2.30;;;1.40;;
11548;SDS011;61444;59.472;18.306;2023-05-07T09:47:58;1.83;;;1.50;;
11548;SDS011;61444;59.472;18.306;2023-05-07T09:50:06;1.20;;;1.10;;
11548;SDS011;61444;59.472;18.306;2023-05-07T09:52:17;2.17;;;1.70;;
11548;SDS011;61444;59.472;18.306;2023-05-07T09:54:26;2.43;;;1.13;;
11548;SDS011;61444;59.472;18.306;2023-05-07T09:56:37;1.43;;;1.30;;
11548;SDS011;61444;59.472;18.306;2023-05-07T09:58:48;1.90;;;1.30;;
11548;SDS011;61444;59.472;18.306;2023-05-07T10:00:58;3.73;;;1.40;;
11548;SDS011;61444;59.472;18.306;2023-05-07T10:03:07;2.80;;;1.40;;
11548;SDS011;61444;59.472;18.306;2023-05-07T10:05:18;2.17;;;1.70;;
11548;SDS011;61444;59.472;18.306;2023-05-07T10:07:27;4.60;;;1.70;;
11548;SDS011;61444;59.472;18.306;2023-05-07T10:09:36;3.33;;;1.40;;
11548;SDS011;61444;59.472;18.306;2023-05-07T10:11:50;2.30;;;1.50;;
11548;SDS011;61444;59.472;18.306;2023-05-07T10:13:59;1.47;;;1.37;;
11548;SDS011;61444;59.472;18.306;2023-05-07T10:16:10;1.60;;;1.50;;
11548;SDS011;61444;59.472;18.306;2023-05-07T10:18:19;2.27;;;1.60;;
11548;SDS011;61444;59.472;18.306;2023-05-07T10:20:30;1.83;;;1.67;;
11548;SDS011;61444;59.472;18.306;2023-05-07T10:22:40;1.77;;;1.60;;
11548;SDS011;61444;59.472;18.306;2023-05-07T10:24:51;1.60;;;1.33;;
11548;SDS011;61444;59.472;18.306;2023-05-07T10:27:04;2.13;;;1.50;;
11548;SDS011;61444;59.472;18.306;2023-05-07T10:29:15;1.67;;;1.47;;
11548;SDS011;61444;59.472;18.306;2023-05-07T10:31:32;8.77;;;1.80;;
11548;SDS011;61444;59.472;18.306;2023-05-07T10:33:44;1.93;;;1.10;;
11548;SDS011;61444;59.472;18.306;2023-05-07T10:35:55;5.90;;;1.47;;
11548;SDS011;61444;59.472;18.306;2023-05-07T10:38:06;2.90;;;1.60;;
11548;SDS011;61444;59.472;18.306;2023-05-07T10:40:16;1.50;;;1.40;;
11548;SDS011;61444;59.472;18.306;2023-05-07T10:42:28;2.77;;;1.50;;
11548;SDS011;61444;59.472;18.306;2023-05-07T10:44:37;1.27;;;1.17;;
11548;SDS011;61444;59.472;18.306;2023-05-07T10:46:52;1.77;;;1.60;;
11548;SDS011;61444;59.472;18.306;2023-05-07T10:49:12;3.67;;;1.50;;
11548;SDS011;61444;59.472;18.306;2023-05-07T10:51:21;2.00;;;1.50;;
11548;SDS011;61444;59.472;18.306;2023-05-07T10:53:30;1.50;;;1.30;;
11548;SDS011;61444;59.472;18.306;2023-05-07T10:55:39;3.47;;;1.50;;
11548;SDS011;61444;59.472;18.306;2023-05-07T10:57:49;1.60;;;1.50;;
11548;SDS011;61444;59.472;18.306;2023-05-07T10:59:58;2.87;;;1.27;;
11548;SDS011;61444;59.472;18.306;2023-05-07T11:02:08;1.93;;;1.67;;
11548;SDS011;61444;59.472;18.306;2023-05-07T11:04:18;2.93;;;1.40;;
11548;SDS011;61444;59.472;18.306;2023-05-07T11:06:31;5.17;;;1.90;;
11548;SDS011;61444;59.472;18.306;2023-05-07T11:08:53;1.60;;;1.40;;
11548;SDS011;61444;59.472;18.306;2023-05-07T11:11:02;2.53;;;1.50;;
11548;SDS011;61444;59.472;18.306;2023-05-07T11:13:13;2.17;;;1.50;;
11548;SDS011;61444;59.472;18.306;2023-05-07T11:15:36;2.73;;;1.63;;
11548;SDS011;61444;59.472;18.306;2023-05-07T11:17:52;1.50;;;1.40;;
11548;SDS011;61444;59.472;18.306;2023-05-07T11:20:01;4.87;;;1.50;;
11548;SDS011;61444;59.472;18.306;2023-05-07T11:24:37;2.07;;;1.30;;
11548;SDS011;61444;59.472;18.306;2023-05-07T11:26:48;1.47;;;1.37;;
11548;SDS011;61444;59.472;18.306;2023-05-07T11:28:59;1.97;;;1.50;;
11548;SDS011;61444;59.472;18.306;2023-05-07T11:31:08;2.33;;;1.40;;
11548;SDS011;61444;59.472;18.306;2023-05-07T11:33:17;3.40;;;1.43;;
11548;SDS011;61444;59.472;18.306;2023-05-07T11:35:27;1.70;;;1.40;;
11548;SDS011;61444;59.472;18.306;2023-05-07T11:37:36;2.40;;;1.20;;
11548;SDS011;61444;59.472;18.306;2023-05-07T11:39:46;1.63;;;1.40;;
11548;SDS011;61444;59.472;18.306;2023-05-07T11:41:55;1.60;;;1.37;;
11548;SDS011;61444;59.472;18.306;2023-05-07T11:44:05;3.03;;;1.50;;
11548;SDS011;61444;59.472;18.306;2023-05-07T11:46:14;2.10;;;1.43;;
11548;SDS011;61444;59.472;18.306;2023-05-07T11:48:23;4.30;;;1.67;;
11548;SDS011;61444;59.472;18.306;2023-05-07T11:50:32;3.57;;;1.40;;
11548;SDS011;61444;59.472;18.306;2023-05-07T11:52:49;2.20;;;1.30;;
11548;SDS011;61444;59.472;18.306;2023-05-07T11:54:58;1.93;;;1.60;;
11548;SDS011;61444;59.472;18.306;2023-05-07T11:57:10;2.27;;;1.43;;
11548;SDS011;61444;59.472;18.306;2023-05-07T11:59:24;2.83;;;1.33;;
11548;SDS011;61444;59.472;18.306;2023-05-07T12:01:34;1.50;;;1.40;;
11548;SDS011;61444;59.472;18.306;2023-05-07T12:03:45;1.83;;;1.53;;
11548;SDS011;61444;59.472;18.306;2023-05-07T12:05:54;3.10;;;1.30;;
11548;SDS011;61444;59.472;18.306;2023-05-07T12:08:03;1.73;;;1.30;;
11548;SDS011;61444;59.472;18.306;2023-05-07T12:10:12;2.33;;;1.10;;
11548;SDS011;61444;59.472;18.306;2023-05-07T12:12:21;2.47;;;1.00;;
11548;SDS011;61444;59.472;18.306;2023-05-07T12:14:31;2.33;;;1.40;;
11548;SDS011;61444;59.472;18.306;2023-05-07T12:16:40;2.90;;;1.50;;
11548;SDS011;61444;59.472;18.306;2023-05-07T12:18:49;3.33;;;1.43;;
11548;SDS011;61444;59.472;18.306;2023-05-07T12:20:59;3.93;;;1.40;;
11548;SDS011;61444;59.472;18.306;2023-05-07T12:23:07;3.60;;;1.53;;
11548;SDS011;61444;59.472;18.306;2023-05-07T12:25:18;2.90;;;1.70;;
11548;SDS011;61444;59.472;18.306;2023-05-07T12:27:27;1.40;;;1.30;;
11548;SDS011;61444;59.472;18.306;2023-05-07T12:29:38;2.63;;;1.40;;
11548;SDS011;61444;59.472;18.306;2023-05-07T12:31:50;2.90;;;1.50;;
11548;SDS011;61444;59.472;18.306;2023-05-07T12:33:59;1.63;;;1.30;;
11548;SDS011;61444;59.472;18.306;2023-05-07T12:36:07;1.77;;;1.47;;
11548;SDS011;61444;59.472;18.306;2023-05-07T12:38:17;2.30;;;1.50;;
11548;SDS011;61444;59.472;18.306;2023-05-07T12:40:35;1.30;;;1.17;;
11548;SDS011;61444;59.472;18.306;2023-05-07T12:42:44;2.70;;;1.30;;
11548;SDS011;61444;59.472;18.306;2023-05-07T12:44:54;1.50;;;1.40;;
11548;SDS011;61444;59.472;18.306;2023-05-07T12:47:03;1.57;;;1.47;;
11548;SDS011;61444;59.472;18.306;2023-05-07T12:49:12;1.83;;;1.60;;
11548;SDS011;61444;59.472;18.306;2023-05-07T12:51:21;1.33;;;1.23;;